Time;durP1;ratioP1;P1;durP2;ratioP2;P2;SDS_P1;SDS_P2;PMS_P1;PMS_P2;Temp;Humidity;BMP_temperature;BMP_pressure;BME280_temperature;BME280_humidity;BME280_pressure;Samples;Min_cycle;Max_cycle;Signal;HPM_P1;HPM_P2
2021/01/07 00:00:47;;;;;;;8.13;7.30;;;1.60;99.90;;;;;;5122203;28;20434;-44
2021/01/07 00:03:13;;;;;;;8.60;7.30;;;1.50;99.90;;;;;;5121463;28;20180;-45
2021/01/07 00:05:40;;;;;;;8.10;7.30;;;1.50;99.90;;;;;;5122270;28;20198;-44
2021/01/07 00:08:05;;;;;;;8.00;7.20;;;1.40;99.90;;;;;;5121966;28;20587;-44
2021/01/07 00:10:31;;;;;;;8.20;7.00;;;1.50;99.90;;;;;;5122001;28;20421;-44
2021/01/07 00:12:57;;;;;;;9.20;7.80;;;1.40;99.90;;;;;;5122134;28;20703;-44
2021/01/07 00:15:25;;;;;;;8.63;7.73;;;1.30;99.90;;;;;;5120769;28;20227;-43
2021/01/07 00:17:50;;;;;;;9.40;7.67;;;1.20;99.90;;;;;;5120555;28;20186;-44
2021/01/07 00:20:16;;;;;;;7.80;6.77;;;1.20;99.90;;;;;;5121079;28;20421;-44
2021/01/07 00:22:42;;;;;;;9.27;8.27;;;1.20;99.90;;;;;;5120842;28;20191;-44
2021/01/07 00:25:08;;;;;;;10.07;9.07;;;1.20;99.90;;;;;;5120810;27;20710;-43
2021/01/07 00:27:35;;;;;;;9.23;8.30;;;1.20;99.90;;;;;;5120772;28;20211;-45
2021/01/07 00:30:03;;;;;;;8.10;7.30;;;1.20;99.90;;;;;;5120723;28;20530;-44
2021/01/07 00:32:29;;;;;;;8.87;8.07;;;1.20;99.90;;;;;;5120530;27;20714;-43
2021/01/07 00:34:55;;;;;;;8.77;7.97;;;1.20;99.90;;;;;;5120131;28;20476;-44
2021/01/07 00:37:20;;;;;;;7.10;6.40;;;1.20;99.90;;;;;;5120999;28;20692;-44
2021/01/07 00:39:46;;;;;;;7.77;6.93;;;1.10;99.90;;;;;;5121298;28;20180;-44
2021/01/07 00:42:16;;;;;;;8.20;6.60;;;1.10;99.90;;;;;;5121361;28;20474;-44
2021/01/07 00:44:41;;;;;;;7.70;6.80;;;1.00;99.90;;;;;;5120247;28;20274;-44
2021/01/07 00:47:07;;;;;;;7.23;6.53;;;1.10;99.90;;;;;;5121506;28;20500;-43
2021/01/07 00:49:33;;;;;;;6.63;5.83;;;1.10;99.90;;;;;;5121111;28;20252;-44
2021/01/07 00:51:59;;;;;;;8.33;7.50;;;1.20;99.90;;;;;;5121380;28;20524;-44
2021/01/07 00:54:25;;;;;;;8.90;7.27;;;1.20;99.90;;;;;;5121125;28;20211;-44
2021/01/07 00:56:50;;;;;;;6.83;6.10;;;1.20;99.90;;;;;;5121342;28;20212;-44
2021/01/07 00:59:16;;;;;;;8.70;7.27;;;1.30;99.90;;;;;;5121297;28;20465;-45
2021/01/07 01:01:46;;;;;;;7.77;6.10;;;1.30;99.90;;;;;;5120761;28;20182;-44
2021/01/07 01:04:15;;;;;;;7.27;6.53;;;1.30;99.90;;;;;;5120872;28;20614;-44
2021/01/07 01:06:42;;;;;;;6.70;6.00;;;1.40;99.90;;;;;;5120964;28;20418;-44
2021/01/07 01:09:09;;;;;;;6.70;5.97;;;1.30;99.90;;;;;;5120013;28;20474;-44
2021/01/07 01:11:45;;;;;;;8.00;6.30;;;1.30;99.90;;;;;;5120444;28;20424;-44
2021/01/07 01:14:18;;;;;;;7.60;6.33;;;1.30;99.90;;;;;;5120869;28;20917;-44
2021/01/07 01:16:46;;;;;;;10.87;7.03;;;1.30;99.90;;;;;;5120935;28;20425;-44
2021/01/07 01:19:12;;;;;;;7.67;6.13;;;1.30;99.90;;;;;;5121310;28;20482;-44
2021/01/07 01:21:38;;;;;;;6.67;5.80;;;1.20;99.90;;;;;;5119942;28;20524;-44
2021/01/07 01:24:04;;;;;;;6.17;5.40;;;1.20;99.90;;;;;;5120720;28;20532;-44
2021/01/07 01:26:30;;;;;;;6.23;5.47;;;1.20;99.90;;;;;;5120699;28;20196;-44
2021/01/07 01:28:56;;;;;;;6.23;5.63;;;1.20;99.90;;;;;;5119467;28;20711;-44
2021/01/07 01:31:22;;;;;;;6.40;5.80;;;1.20;99.90;;;;;;5120673;28;20432;-44
2021/01/07 01:33:48;;;;;;;7.23;6.27;;;1.20;99.90;;;;;;5120065;28;20176;-44
2021/01/07 01:36:14;;;;;;;7.57;5.97;;;1.20;99.90;;;;;;5120504;28;20610;-44
2021/01/07 01:38:39;;;;;;;6.10;5.50;;;1.20;99.90;;;;;;5120235;28;20224;-45
2021/01/07 01:41:06;;;;;;;5.63;5.03;;;1.20;99.90;;;;;;5120359;28;20421;-44
2021/01/07 01:43:33;;;;;;;4.80;4.40;;;1.10;99.90;;;;;;5120103;28;20215;-44
2021/01/07 01:46:00;;;;;;;6.40;5.40;;;1.10;99.90;;;;;;5120131;28;20719;-44
2021/01/07 01:48:26;;;;;;;5.53;4.73;;;1.10;99.90;;;;;;5119707;28;20409;-45
2021/01/07 01:50:55;;;;;;;6.13;5.27;;;1.10;99.90;;;;;;5119313;28;20425;-44
2021/01/07 01:53:22;;;;;;;5.37;4.87;;;1.10;99.90;;;;;;5119878;28;20845;-44
2021/01/07 01:55:49;;;;;;;4.70;4.30;;;1.00;99.90;;;;;;5118816;28;20866;-45
2021/01/07 01:58:15;;;;;;;6.63;5.10;;;1.10;99.90;;;;;;5119663;28;20414;-45
2021/01/07 02:00:41;;;;;;;5.60;5.00;;;1.10;99.90;;;;;;5119579;28;20417;-45
2021/01/07 02:03:08;;;;;;;6.10;5.40;;;1.10;99.90;;;;;;5119545;28;20420;-45
2021/01/07 02:05:36;;;;;;;5.60;4.90;;;1.10;99.90;;;;;;5119506;28;20430;-45
2021/01/07 02:08:06;;;;;;;5.27;4.77;;;1.00;99.90;;;;;;5119708;28;20455;-44
2021/01/07 02:10:32;;;;;;;6.30;5.40;;;1.00;99.90;;;;;;5118856;28;20494;-45
2021/01/07 02:12:59;;;;;;;6.53;5.83;;;1.00;99.90;;;;;;5118903;28;20424;-44
2021/01/07 02:15:25;;;;;;;5.83;5.17;;;1.00;99.90;;;;;;5119610;28;20729;-44
2021/01/07 02:17:51;;;;;;;6.53;5.77;;;1.00;99.90;;;;;;5119383;28;20406;-44
2021/01/07 02:20:23;;;;;;;5.30;4.80;;;1.00;99.90;;;;;;5119520;28;20413;-45
2021/01/07 02:22:53;;;;;;;5.00;4.50;;;0.90;99.90;;;;;;5101271;28;20418;-44
2021/01/07 02:25:19;;;;;;;6.40;5.80;;;0.90;99.90;;;;;;5119054;28;20462;-46
2021/01/07 02:27:45;;;;;;;6.10;5.43;;;0.90;99.90;;;;;;5119224;28;20413;-45
2021/01/07 02:30:12;;;;;;;5.23;4.73;;;0.90;99.90;;;;;;5119214;28;20432;-44
2021/01/07 02:32:37;;;;;;;6.50;5.30;;;0.90;99.90;;;;;;5119175;28;20625;-45
2021/01/07 02:35:04;;;;;;;6.10;4.70;;;0.90;99.90;;;;;;5117953;28;20461;-45
2021/01/07 02:37:30;;;;;;;4.77;4.27;;;1.00;99.90;;;;;;5119257;28;20417;-44
2021/01/07 02:39:55;;;;;;;5.97;5.10;;;0.90;99.90;;;;;;5119637;28;20448;-45
2021/01/07 02:42:24;;;;;;;6.43;5.77;;;1.00;99.90;;;;;;5118973;28;20421;-44
2021/01/07 02:44:49;;;;;;;5.53;4.90;;;1.00;99.90;;;;;;5118617;28;20186;-44
2021/01/07 02:47:15;;;;;;;5.97;5.37;;;0.90;99.90;;;;;;5119204;28;20819;-44
2021/01/07 02:49:41;;;;;;;5.57;4.80;;;0.90;99.90;;;;;;5118537;27;20180;-45
2021/01/07 02:52:07;;;;;;;6.20;5.37;;;0.90;99.90;;;;;;5119026;28;20441;-44
2021/01/07 02:54:32;;;;;;;7.10;5.80;;;0.90;99.90;;;;;;5119094;28;20234;-44
2021/01/07 02:56:58;;;;;;;8.17;6.03;;;0.80;99.90;;;;;;5118359;28;20179;-44
2021/01/07 02:59:24;;;;;;;7.17;5.90;;;0.80;99.90;;;;;;5117640;28;20187;-44
2021/01/07 03:01:50;;;;;;;6.70;6.00;;;0.80;99.90;;;;;;5117834;28;20205;-44
2021/01/07 03:04:15;;;;;;;7.50;5.93;;;0.70;99.90;;;;;;5117620;28;20459;-45
2021/01/07 03:06:41;;;;;;;8.40;6.77;;;0.80;99.90;;;;;;5118034;28;20501;-44
2021/01/07 03:09:07;;;;;;;6.90;5.80;;;0.80;99.90;;;;;;5118363;28;20256;-45
2021/01/07 03:11:34;;;;;;;7.27;6.47;;;0.80;99.90;;;;;;5117912;28;20519;-45
2021/01/07 03:14:00;;;;;;;5.80;5.00;;;0.80;99.90;;;;;;5118357;28;20334;-45
2021/01/07 03:16:26;;;;;;;6.57;5.90;;;0.80;99.90;;;;;;5118346;28;20520;-44
2021/01/07 03:18:52;;;;;;;8.13;6.60;;;0.80;99.90;;;;;;5118133;28;20521;-45
2021/01/07 03:21:20;;;;;;;6.97;6.27;;;0.90;99.90;;;;;;5117391;28;20192;-44
2021/01/07 03:23:46;;;;;;;7.30;6.40;;;0.90;99.90;;;;;;5118609;28;20417;-45
2021/01/07 03:26:12;;;;;;;8.10;6.97;;;0.90;99.90;;;;;;5118302;28;20839;-44
2021/01/07 03:28:37;;;;;;;6.80;6.10;;;0.80;99.90;;;;;;5118134;28;20452;-45
2021/01/07 03:31:03;;;;;;;7.80;6.50;;;0.90;99.90;;;;;;5118059;28;20815;-44
2021/01/07 03:33:29;;;;;;;9.27;6.57;;;0.80;99.90;;;;;;5117365;28;20184;-44
2021/01/07 03:35:55;;;;;;;7.87;6.97;;;0.80;99.90;;;;;;5118011;28;20215;-44
2021/01/07 03:38:21;;;;;;;8.80;7.23;;;0.90;99.90;;;;;;5117429;28;20214;-45
2021/01/07 03:40:47;;;;;;;9.83;7.17;;;0.90;99.90;;;;;;5118293;28;20417;-44
2021/01/07 03:43:13;;;;;;;8.63;7.50;;;0.90;99.90;;;;;;5118849;28;20406;-45
2021/01/07 03:45:38;;;;;;;9.30;8.07;;;0.80;99.90;;;;;;5118438;28;20602;-44
2021/01/07 03:48:05;;;;;;;8.00;7.10;;;0.80;99.90;;;;;;5118076;28;20257;-44
2021/01/07 03:50:31;;;;;;;10.13;8.00;;;0.90;99.90;;;;;;5118386;28;20425;-44
2021/01/07 03:52:57;;;;;;;9.60;7.53;;;0.90;99.90;;;;;;5117819;28;20425;-45
2021/01/07 03:55:22;;;;;;;8.83;7.00;;;0.80;99.90;;;;;;5118289;28;20264;-44
2021/01/07 03:57:48;;;;;;;9.00;7.53;;;0.80;99.90;;;;;;5117709;28;20547;-45
2021/01/07 04:00:15;;;;;;;9.00;8.10;;;0.80;99.90;;;;;;5117134;28;20634;-45
2021/01/07 04:02:40;;;;;;;11.83;8.23;;;0.70;99.90;;;;;;5117652;28;20190;-45
2021/01/07 04:05:07;;;;;;;8.93;7.90;;;0.70;99.90;;;;;;5116907;28;20425;-44
2021/01/07 04:07:32;;;;;;;11.50;8.77;;;0.80;99.90;;;;;;5118222;28;20179;-45
2021/01/07 04:09:58;;;;;;;10.30;8.30;;;0.80;99.90;;;;;;5117935;28;20432;-45
2021/01/07 04:12:24;;;;;;;11.73;7.80;;;0.80;99.90;;;;;;5118070;28;20172;-45
2021/01/07 04:14:50;;;;;;;10.00;8.37;;;0.80;99.90;;;;;;5117419;28;20486;-45
2021/01/07 04:17:15;;;;;;;12.30;9.73;;;0.80;99.90;;;;;;5116881;28;20441;-44
2021/01/07 04:19:42;;;;;;;11.77;9.40;;;0.70;99.90;;;;;;5116697;28;20480;-44
2021/01/07 04:22:08;;;;;;;12.30;8.30;;;0.70;99.90;;;;;;5116158;28;20584;-45
2021/01/07 04:24:33;;;;;;;12.50;9.57;;;0.70;99.90;;;;;;5115988;28;20421;-45
2021/01/07 04:27:03;;;;;;;13.97;9.93;;;0.70;99.90;;;;;;5116790;28;20184;-44
2021/01/07 04:29:29;;;;;;;13.37;10.20;;;0.70;99.90;;;;;;5116515;28;20192;-45
2021/01/07 04:31:55;;;;;;;12.10;9.90;;;0.70;99.90;;;;;;5116553;28;20850;-45
2021/01/07 04:34:21;;;;;;;11.90;9.47;;;0.70;99.90;;;;;;5116379;28;20472;-44
2021/01/07 04:36:48;;;;;;;15.13;10.70;;;0.70;99.90;;;;;;5117313;28;20176;-44
2021/01/07 04:39:15;;;;;;;13.30;10.37;;;0.70;99.90;;;;;;5117693;28;20257;-44
2021/01/07 04:41:40;;;;;;;15.23;11.60;;;0.70;99.90;;;;;;5117618;28;20417;-44
2021/01/07 04:44:06;;;;;;;11.20;9.87;;;0.80;99.90;;;;;;5117844;28;20414;-43
2021/01/07 04:46:32;;;;;;;13.20;10.00;;;0.70;99.90;;;;;;5120417;28;20218;-43
2021/01/07 04:48:58;;;;;;;13.27;10.33;;;0.70;99.90;;;;;;5120631;28;20561;-43
2021/01/07 04:51:24;;;;;;;14.30;9.93;;;0.70;99.90;;;;;;5120436;28;20183;-43
2021/01/07 04:53:50;;;;;;;10.63;9.33;;;0.70;99.90;;;;;;5120233;28;20834;-43
2021/01/07 04:56:16;;;;;;;14.90;10.30;;;0.70;99.90;;;;;;5119661;28;20206;-43
2021/01/07 04:58:42;;;;;;;13.93;10.90;;;0.70;99.90;;;;;;5120669;28;20845;-43
2021/01/07 05:01:07;;;;;;;13.17;10.30;;;0.70;99.90;;;;;;5120810;28;20561;-43
2021/01/07 05:03:34;;;;;;;14.17;10.93;;;0.70;99.90;;;;;;5120885;28;20180;-43
2021/01/07 05:06:00;;;;;;;12.53;10.20;;;0.70;99.90;;;;;;5119894;28;20859;-43
2021/01/07 05:08:26;;;;;;;15.43;12.07;;;0.70;99.90;;;;;;5120597;28;20506;-43
2021/01/07 05:10:53;;;;;;;16.30;11.27;;;0.80;99.90;;;;;;5120475;28;20421;-43
2021/01/07 05:13:20;;;;;;;13.20;10.30;;;0.80;99.90;;;;;;5120640;28;20425;-44
2021/01/07 05:15:46;;;;;;;13.30;11.20;;;0.80;99.90;;;;;;5120774;28;20716;-43
2021/01/07 05:18:11;;;;;;;15.13;11.60;;;0.80;99.90;;;;;;5119906;28;20474;-43
2021/01/07 05:20:38;;;;;;;14.87;11.37;;;0.90;99.90;;;;;;5119791;28;20424;-43
2021/01/07 05:23:04;;;;;;;17.80;12.33;;;0.90;99.90;;;;;;5119479;28;20422;-43
2021/01/07 05:25:30;;;;;;;18.10;11.70;;;0.90;99.90;;;;;;5119458;28;20546;-43
2021/01/07 05:28:04;;;;;;;15.33;11.40;;;0.90;99.90;;;;;;5119433;28;20440;-44
2021/01/07 05:30:32;;;;;;;15.73;11.17;;;0.90;99.90;;;;;;5119635;28;20463;-44
2021/01/07 05:33:10;;;;;;;15.67;10.70;;;0.90;99.90;;;;;;5120101;27;20504;-44
2021/01/07 05:35:37;;;;;;;15.03;11.80;;;0.90;99.90;;;;;;5120727;28;20464;-44
2021/01/07 05:38:06;;;;;;;16.20;11.90;;;0.80;99.90;;;;;;5120236;28;20410;-45
2021/01/07 05:40:34;;;;;;;15.20;11.73;;;0.80;99.90;;;;;;5120371;28;20414;-45
2021/01/07 05:43:13;;;;;;;14.93;11.70;;;0.80;99.90;;;;;;5120867;27;20767;-45
2021/01/07 05:45:40;;;;;;;19.23;13.03;;;0.80;99.90;;;;;;5119853;28;21053;-45
2021/01/07 05:48:06;;;;;;;19.10;12.73;;;0.80;99.90;;;;;;5118052;28;20417;-44
2021/01/07 05:50:37;;;;;;;18.00;12.40;;;0.80;99.90;;;;;;5119086;28;20523;-44
2021/01/07 05:53:03;;;;;;;21.40;13.33;;;0.80;99.90;;;;;;5119349;28;20437;-45
2021/01/07 05:55:29;;;;;;;14.60;11.37;;;0.70;99.90;;;;;;5118839;28;20484;-44
2021/01/07 05:58:02;;;;;;;20.03;11.90;;;0.80;99.90;;;;;;5119363;28;20420;-45
2021/01/07 06:00:33;;;;;;;17.30;12.93;;;0.80;99.90;;;;;;5119095;28;20422;-45
2021/01/07 06:03:00;;;;;;;16.70;11.30;;;0.70;99.90;;;;;;5119499;28;20413;-45
2021/01/07 06:05:26;;;;;;;17.57;12.70;;;0.70;99.90;;;;;;5119703;28;20413;-44
2021/01/07 06:07:54;;;;;;;16.53;11.60;;;0.70;99.90;;;;;;5119710;28;20823;-44
2021/01/07 06:10:21;;;;;;;18.20;11.40;;;0.70;99.90;;;;;;5119396;28;20695;-45
2021/01/07 06:12:47;;;;;;;17.17;12.40;;;0.70;99.90;;;;;;5119467;28;20422;-45
2021/01/07 06:15:18;;;;;;;18.03;12.90;;;0.70;99.90;;;;;;5119271;28;20517;-45
2021/01/07 06:17:44;;;;;;;16.10;11.10;;;0.60;99.90;;;;;;5119143;28;20773;-44
2021/01/07 06:20:20;;;;;;;16.13;12.73;;;0.70;99.90;;;;;;5118888;28;20433;-45
2021/01/07 06:22:48;;;;;;;20.30;12.97;;;0.70;99.90;;;;;;5118218;28;20425;-44
2021/01/07 06:25:16;;;;;;;16.30;11.80;;;0.80;99.90;;;;;;5118079;28;20429;-44
2021/01/07 06:27:43;;;;;;;14.43;11.10;;;0.80;99.90;;;;;;5118664;28;20422;-45
2021/01/07 06:30:11;;;;;;;15.43;11.87;;;0.90;99.90;;;;;;5118395;28;20528;-45
2021/01/07 06:32:41;;;;;;;14.60;11.97;;;0.90;99.90;;;;;;5118259;28;20704;-44
2021/01/07 06:35:12;;;;;;;17.47;12.70;;;1.00;99.90;;;;;;5118542;28;20571;-45
2021/01/07 06:37:48;;;;;;;16.73;11.93;;;1.00;99.90;;;;;;5118804;28;20942;-44
2021/01/07 06:40:15;;;;;;;15.17;11.40;;;0.90;99.90;;;;;;5118490;28;20432;-45
2021/01/07 06:42:43;;;;;;;17.03;12.67;;;0.90;99.90;;;;;;5118644;28;20414;-44
2021/01/07 06:45:11;;;;;;;16.80;12.13;;;0.90;99.90;;;;;;5118060;28;20429;-44
2021/01/07 06:47:42;;;;;;;14.57;12.00;;;0.80;99.90;;;;;;5118479;27;20570;-44
2021/01/07 06:50:12;;;;;;;16.10;11.83;;;0.80;99.90;;;;;;5124825;27;20497;-45
2021/01/07 06:52:39;;;;;;;15.80;12.00;;;0.80;99.90;;;;;;5125901;27;20464;-45
2021/01/07 06:55:17;;;;;;;17.70;13.30;;;0.80;99.90;;;;;;5128346;27;20841;-44
2021/01/07 06:57:56;;;;;;;19.30;13.40;;;0.80;99.90;;;;;;5126169;27;20422;-45
2021/01/07 07:00:24;;;;;;;17.03;12.57;;;0.70;99.90;;;;;;5107971;28;20839;-45
2021/01/07 07:03:03;;;;;;;15.37;11.33;;;0.80;99.90;;;;;;5126844;27;20734;-45
2021/01/07 07:05:36;;;;;;;18.37;13.40;;;0.70;99.90;;;;;;5128074;27;20429;-44
2021/01/07 07:08:07;;;;;;;18.03;13.37;;;0.70;99.90;;;;;;5130988;27;20508;-45
2021/01/07 07:10:32;;;;;;;22.53;12.63;;;0.70;99.90;;;;;;5118452;27;20432;-44
2021/01/07 07:12:59;;;;;;;25.40;12.97;;;0.70;99.90;;;;;;5137301;27;20425;-44
2021/01/07 07:15:25;;;;;;;19.17;13.10;;;0.80;99.90;;;;;;5134259;27;20640;-44
2021/01/07 07:17:53;;;;;;;18.73;13.03;;;0.70;99.90;;;;;;5126357;27;20712;-44
2021/01/07 07:20:26;;;;;;;19.60;13.80;;;0.70;99.90;;;;;;5139274;27;20453;-45
2021/01/07 07:22:53;;;;;;;17.87;12.57;;;0.70;99.90;;;;;;5138681;27;20417;-45
2021/01/07 07:25:23;;;;;;;17.43;13.77;;;0.70;99.90;;;;;;5138841;27;20432;-45
2021/01/07 07:27:51;;;;;;;18.73;12.60;;;0.80;99.90;;;;;;5138019;27;20466;-43
2021/01/07 07:30:29;;;;;;;16.97;12.80;;;0.80;99.90;;;;;;5137366;27;20443;-41
2021/01/07 07:32:58;;;;;;;19.20;14.50;;;0.90;99.90;;;;;;5137572;27;20427;-44
2021/01/07 07:35:26;;;;;;;17.73;12.33;;;0.90;99.90;;;;;;5137396;27;20483;-44
2021/01/07 07:37:53;;;;;;;16.87;14.40;;;0.90;99.90;;;;;;5137007;27;20420;-45
2021/01/07 07:40:36;;;;;;;19.93;12.87;;;0.90;99.90;;;;;;5133449;27;20489;-44
2021/01/07 07:43:03;;;;;;;21.37;13.67;;;1.00;99.90;;;;;;5130013;27;20501;-44
2021/01/07 07:45:33;;;;;;;20.87;13.60;;;1.00;99.90;;;;;;5136231;27;20438;-44
2021/01/07 07:47:59;;;;;;;17.53;12.63;;;1.00;99.90;;;;;;5138103;27;20443;-44
2021/01/07 07:50:29;;;;;;;20.20;15.00;;;1.00;99.90;;;;;;5136203;28;20440;-45
2021/01/07 07:53:08;;;;;;;20.00;12.97;;;1.00;99.90;;;;;;5137494;27;20777;-44
2021/01/07 07:55:38;;;;;;;17.23;13.63;;;1.10;99.90;;;;;;5137810;27;20552;-45
2021/01/07 07:58:15;;;;;;;16.73;13.23;;;1.10;99.90;;;;;;5137726;27;20702;-44
2021/01/07 08:00:52;;;;;;;21.23;17.70;;;1.20;99.90;;;;;;5137134;27;20428;-45
2021/01/07 08:03:29;;;;;;;68.87;51.07;;;1.30;99.90;;;;;;5138453;27;20958;-44
2021/01/07 08:05:59;;;;;;;19.83;15.40;;;1.30;99.90;;;;;;5135946;28;20436;-45
2021/01/07 08:08:29;;;;;;;19.03;14.13;;;1.20;99.90;;;;;;5135737;27;20421;-45
2021/01/07 08:10:56;;;;;;;16.60;13.57;;;1.10;99.90;;;;;;5137857;27;20443;-44
2021/01/07 08:13:24;;;;;;;17.50;13.67;;;1.20;99.90;;;;;;5137562;27;20420;-45
2021/01/07 08:15:51;;;;;;;17.33;12.87;;;1.30;99.90;;;;;;5137715;27;20538;-45
2021/01/07 08:18:26;;;;;;;20.53;13.87;;;1.30;99.90;;;;;;5137717;27;20417;-45
2021/01/07 08:20:54;;;;;;;18.80;12.60;;;1.30;99.90;;;;;;5121093;28;20421;-45
2021/01/07 08:23:21;;;;;;;18.87;14.50;;;1.40;99.90;;;;;;5121275;28;20516;-45
2021/01/07 08:25:49;;;;;;;23.13;14.50;;;1.40;99.90;;;;;;5142039;27;20429;-45
2021/01/07 08:28:30;;;;;;;20.47;13.90;;;1.20;99.90;;;;;;5141223;27;20413;-44
2021/01/07 08:30:59;;;;;;;20.07;13.63;;;1.10;99.90;;;;;;5121799;28;20710;-44
2021/01/07 08:33:26;;;;;;;21.10;15.20;;;1.10;99.90;;;;;;5121355;27;20997;-45
2021/01/07 08:35:52;;;;;;;19.13;14.07;;;1.20;99.90;;;;;;5140337;27;20874;-45
2021/01/07 08:38:32;;;;;;;20.10;15.27;;;1.20;99.90;;;;;;5141068;27;20862;-45
2021/01/07 08:41:36;;;;;;;18.57;14.47;;;1.20;99.90;;;;;;5141086;27;20527;-44
2021/01/07 08:44:07;;;;;;;23.03;15.10;;;1.20;99.90;;;;;;5140412;27;20428;-44
2021/01/07 08:46:41;;;;;;;22.67;16.50;;;1.20;99.90;;;;;;5141511;27;20462;-44
2021/01/07 08:49:13;;;;;;;21.47;15.07;;;1.10;99.90;;;;;;5136154;27;20459;-44
2021/01/07 08:51:46;;;;;;;18.27;13.63;;;1.00;99.90;;;;;;5120485;27;20436;-44
2021/01/07 08:54:12;;;;;;;18.87;15.37;;;1.20;99.90;;;;;;5127993;27;20464;-44
2021/01/07 08:56:43;;;;;;;22.40;15.87;;;1.30;99.90;;;;;;5138503;27;20436;-44
2021/01/07 08:59:29;;;;;;;19.90;14.50;;;1.40;99.90;;;;;;5139959;27;20432;-44
2021/01/07 09:02:20;;;;;;;19.30;14.70;;;1.50;99.90;;;;;;5121406;27;20429;-44
2021/01/07 09:04:49;;;;;;;20.10;14.97;;;1.70;99.90;;;;;;5118277;27;20996;-44
2021/01/07 09:07:15;;;;;;;20.43;15.43;;;1.70;99.90;;;;;;5138881;27;20421;-44
2021/01/07 09:09:53;;;;;;;19.10;13.70;;;1.80;99.90;;;;;;5139313;27;20423;-44
2021/01/07 09:12:33;;;;;;;19.10;13.80;;;1.90;99.90;;;;;;5137919;27;20214;-44
2021/01/07 09:15:09;;;;;;;20.03;14.87;;;2.00;99.90;;;;;;5137712;27;20564;-43
2021/01/07 09:17:44;;;;;;;19.73;14.73;;;1.90;99.90;;;;;;5138968;27;20413;-44
2021/01/07 09:20:12;;;;;;;21.93;14.70;;;2.00;99.90;;;;;;5139464;27;20446;-44
2021/01/07 09:22:38;;;;;;;19.03;13.87;;;2.10;99.90;;;;;;5138951;27;20512;-44
2021/01/07 09:25:05;;;;;;;19.43;14.60;;;2.20;99.90;;;;;;5140022;27;20432;-43
2021/01/07 09:27:31;;;;;;;15.43;13.07;;;2.30;99.90;;;;;;5139818;27;20429;-44
2021/01/07 09:29:57;;;;;;;17.47;14.07;;;2.40;99.90;;;;;;5139433;27;20441;-43
2021/01/07 09:32:23;;;;;;;15.80;12.80;;;2.40;99.50;;;;;;5139294;27;20931;-44
2021/01/07 09:34:49;;;;;;;16.20;12.03;;;2.40;99.40;;;;;;5138736;27;20460;-44
2021/01/07 09:37:18;;;;;;;17.00;13.37;;;2.50;99.50;;;;;;5139220;27;20710;-44
2021/01/07 09:39:45;;;;;;;16.30;13.70;;;2.50;98.90;;;;;;5138563;27;20432;-44
2021/01/07 09:42:11;;;;;;;17.73;13.77;;;2.40;98.50;;;;;;5136793;27;20417;-44
2021/01/07 09:44:37;;;;;;;18.77;13.93;;;2.30;99.00;;;;;;5131145;27;20845;-44
2021/01/07 09:47:04;;;;;;;16.87;13.87;;;2.30;98.60;;;;;;5138826;27;20447;-44
2021/01/07 09:49:31;;;;;;;16.60;13.20;;;2.30;99.00;;;;;;5138240;27;20425;-43
2021/01/07 09:51:57;;;;;;;15.57;11.80;;;2.20;99.00;;;;;;5138989;27;20511;-44
2021/01/07 09:54:24;;;;;;;19.43;14.30;;;2.40;99.30;;;;;;5138443;27;20473;-44
2021/01/07 09:56:54;;;;;;;17.83;13.20;;;2.50;99.40;;;;;;5132171;27;20815;-44
2021/01/07 09:59:21;;;;;;;15.53;12.57;;;2.50;99.10;;;;;;5127956;27;20429;-44
2021/01/07 10:01:54;;;;;;;18.80;13.47;;;2.60;98.60;;;;;;5139410;27;20436;-44
2021/01/07 10:04:21;;;;;;;17.23;12.80;;;2.60;98.20;;;;;;5138766;27;20532;-44
2021/01/07 10:06:47;;;;;;;16.83;11.93;;;2.60;98.30;;;;;;5138997;27;20424;-44
2021/01/07 10:09:13;;;;;;;15.23;12.23;;;2.50;98.50;;;;;;5138517;27;20431;-44
2021/01/07 10:11:39;;;;;;;18.20;13.10;;;2.60;98.80;;;;;;5139749;27;20420;-44
2021/01/07 10:14:05;;;;;;;16.53;13.50;;;2.70;98.50;;;;;;5139559;27;20432;-43
2021/01/07 10:16:31;;;;;;;16.33;12.10;;;2.80;98.30;;;;;;5139744;27;20587;-44
2021/01/07 10:18:57;;;;;;;15.23;11.87;;;2.80;97.40;;;;;;5137154;27;20438;-43
2021/01/07 10:21:24;;;;;;;14.10;11.10;;;2.50;96.90;;;;;;5138346;27;20183;-42
2021/01/07 10:23:51;;;;;;;16.60;11.97;;;2.50;97.20;;;;;;5137933;27;20587;-44
2021/01/07 10:26:18;;;;;;;16.53;12.70;;;2.40;97.60;;;;;;5139212;27;20489;-43
2021/01/07 10:28:46;;;;;;;17.43;12.90;;;2.50;98.10;;;;;;5128412;27;20441;-44
2021/01/07 10:31:18;;;;;;;16.87;11.70;;;2.50;97.80;;;;;;5139119;27;20432;-43
2021/01/07 10:33:45;;;;;;;15.50;11.80;;;2.60;98.00;;;;;;5139290;27;20856;-43
2021/01/07 10:36:18;;;;;;;14.87;12.23;;;2.40;97.80;;;;;;5139982;27;20861;-44
2021/01/07 10:38:48;;;;;;;18.00;12.93;;;2.60;97.80;;;;;;5139387;27;20446;-44
2021/01/07 10:41:14;;;;;;;16.40;13.07;;;2.60;97.30;;;;;;5138854;27;20516;-44
2021/01/07 10:43:40;;;;;;;14.17;12.10;;;2.50;97.70;;;;;;5129462;27;20440;-43
2021/01/07 10:46:06;;;;;;;15.40;11.90;;;2.40;97.40;;;;;;5138810;27;20427;-43
2021/01/07 10:48:36;;;;;;;13.00;11.07;;;2.60;97.60;;;;;;5139203;27;20522;-43
2021/01/07 10:51:03;;;;;;;14.00;11.30;;;2.40;97.00;;;;;;5138107;27;20428;-43
2021/01/07 10:53:47;;;;;;;17.53;11.73;;;2.30;97.30;;;;;;5137920;27;20444;-43
2021/01/07 10:56:25;;;;;;;13.77;10.80;;;2.50;97.40;;;;;;5138959;27;20504;-44
2021/01/07 10:59:14;;;;;;;13.60;10.07;;;2.50;97.20;;;;;;5121560;27;20703;-44
2021/01/07 11:02:14;;;;;;;12.93;9.70;;;2.60;97.40;;;;;;5136339;27;20992;-44
2021/01/07 11:04:57;;;;;;;14.47;10.70;;;2.70;97.10;;;;;;5129823;27;20438;-43
2021/01/07 11:07:29;;;;;;;11.37;9.67;;;2.80;97.20;;;;;;5137952;27;20428;-44
2021/01/07 11:10:04;;;;;;;13.77;10.50;;;2.90;97.00;;;;;;5138965;27;20424;-43
2021/01/07 11:13:00;;;;;;;13.90;10.83;;;3.00;97.00;;;;;;5128978;27;20447;-44
2021/01/07 11:15:30;;;;;;;14.90;11.13;;;3.10;96.80;;;;;;5109459;27;20527;-43
2021/01/07 11:17:58;;;;;;;15.53;11.80;;;3.20;96.70;;;;;;5138591;27;20425;-44
2021/01/07 11:20:27;;;;;;;13.40;10.47;;;3.30;96.00;;;;;;5133824;27;20424;-44
2021/01/07 11:22:54;;;;;;;12.53;10.87;;;3.30;96.20;;;;;;5138658;27;20439;-44
2021/01/07 11:25:20;;;;;;;14.10;9.20;;;3.50;95.90;;;;;;5137820;27;20468;-44
2021/01/07 11:27:47;;;;;;;12.90;9.80;;;3.70;95.40;;;;;;5137906;27;20432;-44
2021/01/07 11:30:14;;;;;;;10.73;9.60;;;3.90;95.00;;;;;;5136350;27;20417;-44
2021/01/07 11:32:39;;;;;;;10.50;8.70;;;3.90;94.40;;;;;;5136339;27;20471;-45
2021/01/07 11:35:12;;;;;;;13.17;9.60;;;4.10;93.90;;;;;;5135971;27;20753;-44
2021/01/07 11:37:52;;;;;;;11.97;8.90;;;4.00;93.60;;;;;;5117243;28;20288;-44
2021/01/07 11:40:26;;;;;;;11.80;10.27;;;4.00;93.80;;;;;;5133844;27;20436;-44
2021/01/07 11:43:19;;;;;;;12.73;10.00;;;3.90;93.20;;;;;;5137653;27;20420;-43
2021/01/07 11:45:53;;;;;;;11.70;9.40;;;3.80;93.80;;;;;;5138365;27;20425;-44
2021/01/07 11:48:19;;;;;;;15.07;10.90;;;3.40;93.70;;;;;;5136909;27;20416;-44
2021/01/07 11:50:45;;;;;;;11.57;9.03;;;3.30;94.40;;;;;;5136088;28;20468;-44
2021/01/07 11:53:12;;;;;;;13.10;10.60;;;2.80;95.20;;;;;;5137173;27;20517;-44
2021/01/07 11:55:38;;;;;;;13.83;10.57;;;2.80;96.00;;;;;;5141469;27;20483;-44
2021/01/07 11:58:18;;;;;;;11.67;10.30;;;2.80;96.00;;;;;;5142859;27;20432;-43
2021/01/07 12:00:44;;;;;;;12.00;9.53;;;3.00;95.80;;;;;;5137960;27;20218;-44
2021/01/07 12:03:13;;;;;;;13.83;11.53;;;3.20;96.10;;;;;;5135427;27;20432;-44
2021/01/07 12:05:39;;;;;;;12.93;10.30;;;3.30;95.50;;;;;;5123964;27;20440;-43
2021/01/07 12:08:25;;;;;;;12.87;10.40;;;3.20;95.20;;;;;;5120844;28;20707;-44
2021/01/07 12:10:53;;;;;;;16.00;11.30;;;3.20;95.20;;;;;;5119685;27;20468;-44
2021/01/07 12:13:34;;;;;;;16.60;12.57;;;3.20;95.80;;;;;;5140104;27;20926;-45
2021/01/07 12:16:00;;;;;;;14.90;11.60;;;3.40;96.10;;;;;;5121009;28;20516;-45
2021/01/07 12:18:27;;;;;;;15.13;11.50;;;3.40;95.80;;;;;;5120482;28;20417;-45
2021/01/07 12:20:53;;;;;;;12.47;10.60;;;3.40;95.20;;;;;;5142213;27;20801;-44
2021/01/07 12:23:19;;;;;;;12.30;11.00;;;2.90;95.30;;;;;;5142110;27;20427;-43
2021/01/07 12:25:47;;;;;;;12.83;10.73;;;3.10;95.90;;;;;;5140763;27;20416;-44
2021/01/07 12:28:17;;;;;;;12.67;10.70;;;3.30;95.90;;;;;;5141396;27;20444;-45
2021/01/07 12:30:46;;;;;;;14.40;10.87;;;3.50;95.60;;;;;;5132798;27;20855;-45
2021/01/07 12:33:17;;;;;;;14.87;11.57;;;3.40;94.80;;;;;;5119114;28;20435;-45
2021/01/07 12:36:11;;;;;;;11.70;9.37;;;3.30;94.90;;;;;;5138694;27;20460;-45
2021/01/07 12:38:53;;;;;;;15.93;11.53;;;3.30;95.60;;;;;;5138990;27;20428;-44
2021/01/07 12:41:26;;;;;;;14.30;12.10;;;3.20;95.40;;;;;;5119368;28;20429;-44
2021/01/07 12:43:53;;;;;;;15.37;12.33;;;3.10;95.70;;;;;;5119261;28;20449;-45
2021/01/07 12:46:24;;;;;;;15.33;12.10;;;2.90;96.30;;;;;;5119638;28;20421;-45
2021/01/07 12:48:51;;;;;;;13.87;12.10;;;3.00;96.50;;;;;;5122701;27;20436;-44
2021/01/07 12:51:16;;;;;;;14.03;11.97;;;3.00;96.80;;;;;;5138169;27;20605;-45